createdAt,value
2018-08-22T00:00:33.073Z,21.00
2018-08-22T00:03:01.269Z,20.90
2018-08-22T00:05:29.523Z,20.90
2018-08-22T00:07:57.669Z,20.80
2018-08-22T00:10:25.869Z,20.80
2018-08-22T00:12:54.021Z,20.70
2018-08-22T00:15:22.204Z,20.60
2018-08-22T00:17:50.408Z,20.60
2018-08-22T00:20:18.581Z,20.60
2018-08-22T00:22:46.800Z,20.70
2018-08-22T00:25:14.989Z,20.60
2018-08-22T00:27:43.183Z,20.60
2018-08-22T00:30:11.408Z,20.60
2018-08-22T00:32:39.577Z,20.50
2018-08-22T00:35:08.037Z,20.40
2018-08-22T00:37:36.893Z,20.40
2018-08-22T00:40:05.121Z,20.40
2018-08-22T00:42:33.347Z,20.50
2018-08-22T00:45:01.517Z,20.40
2018-08-22T00:47:29.724Z,20.40
2018-08-22T00:49:57.896Z,20.50
2018-08-22T00:52:26.103Z,20.50
2018-08-22T00:54:54.308Z,20.50
2018-08-22T00:57:22.510Z,20.40
2018-08-22T00:59:50.728Z,20.50
2018-08-22T01:02:18.893Z,20.40
2018-08-22T01:04:47.090Z,20.50
2018-08-22T01:07:15.460Z,20.40
2018-08-22T01:09:44.183Z,20.20
2018-08-22T01:12:12.372Z,20.00
2018-08-22T01:14:40.527Z,20.00
2018-08-22T01:17:08.676Z,19.70
2018-08-22T01:19:36.916Z,19.70
2018-08-22T01:22:05.535Z,19.70
2018-08-22T01:24:33.737Z,19.70
2018-08-22T01:27:01.929Z,19.70
2018-08-22T01:29:30.104Z,19.70
2018-08-22T01:31:58.312Z,19.40
2018-08-22T01:34:26.506Z,19.40
2018-08-22T01:36:54.674Z,19.40
2018-08-22T01:39:22.877Z,19.40
2018-08-22T01:41:51.029Z,19.50
2018-08-22T01:44:19.241Z,19.40
2018-08-22T01:46:47.499Z,19.30
2018-08-22T01:49:15.683Z,19.40
2018-08-22T01:51:43.876Z,19.30
2018-08-22T01:54:12.030Z,19.30
2018-08-22T01:56:40.296Z,19.40
2018-08-22T01:59:08.500Z,19.50
2018-08-22T02:01:36.670Z,19.50
2018-08-22T02:04:05.097Z,19.50
2018-08-22T02:06:33.296Z,19.40
2018-08-22T02:09:01.492Z,19.40
2018-08-22T02:11:29.676Z,19.30
2018-08-22T02:13:57.860Z,19.20
2018-08-22T02:16:26.060Z,19.30
2018-08-22T02:18:54.212Z,19.30
2018-08-22T02:21:22.396Z,19.30
2018-08-22T02:23:50.585Z,19.30
2018-08-22T02:26:18.741Z,19.30
2018-08-22T02:28:47.001Z,19.30
2018-08-22T02:31:15.174Z,19.20
2018-08-22T02:33:43.381Z,19.10
2018-08-22T02:36:11.590Z,19.10
2018-08-22T02:38:39.760Z,19.00
2018-08-22T02:41:07.962Z,19.00
2018-08-22T02:43:36.104Z,19.00
2018-08-22T02:46:04.628Z,19.00
2018-08-22T02:48:37.280Z,18.80
2018-08-22T02:51:05.497Z,18.70
2018-08-22T02:53:33.756Z,18.70
2018-08-22T02:56:01.925Z,18.70
2018-08-22T02:58:30.144Z,18.70
2018-08-22T03:00:58.313Z,18.80
2018-08-22T03:03:26.513Z,18.70
2018-08-22T03:05:54.770Z,18.70
2018-08-22T03:08:22.924Z,18.70
2018-08-22T03:10:51.203Z,18.70
2018-08-22T03:13:19.406Z,18.60
2018-08-22T03:15:47.592Z,18.60
2018-08-22T03:18:15.793Z,18.70
2018-08-22T03:20:44.041Z,18.80
2018-08-22T03:23:12.255Z,18.80
2018-08-22T03:25:40.514Z,18.80
2018-08-22T03:28:08.716Z,18.70
2018-08-22T03:30:36.948Z,18.70
2018-08-22T03:33:05.349Z,18.60
2018-08-22T03:35:33.765Z,18.50
2018-08-22T03:38:01.948Z,18.40
2018-08-22T03:40:30.157Z,18.40
2018-08-22T03:42:58.534Z,18.30
2018-08-22T03:45:26.700Z,18.30
2018-08-22T03:47:54.900Z,18.20
2018-08-22T03:50:23.076Z,18.20
2018-08-22T03:52:51.267Z,18.10
2018-08-22T03:55:19.463Z,18.20
2018-08-22T03:57:47.693Z,18.20
2018-08-22T04:00:15.949Z,18.20
2018-08-22T04:02:44.120Z,18.10
2018-08-22T04:05:12.320Z,18.00
2018-08-22T04:07:40.525Z,18.00
2018-08-22T04:10:08.699Z,18.20
2018-08-22T04:12:36.914Z,18.30
2018-08-22T04:15:05.278Z,18.30
2018-08-22T04:17:37.181Z,18.30
2018-08-22T04:20:05.927Z,18.30
2018-08-22T04:22:34.820Z,18.30
2018-08-22T04:25:03.064Z,18.30
2018-08-22T04:27:31.317Z,18.30
2018-08-22T04:29:59.509Z,18.30
2018-08-22T04:32:27.829Z,18.40
2018-08-22T04:34:56.109Z,18.30
2018-08-22T04:37:24.407Z,18.20
2018-08-22T04:39:52.557Z,18.30
2018-08-22T04:42:20.757Z,18.40
2018-08-22T04:44:49.180Z,18.40
2018-08-22T04:47:17.420Z,18.40
2018-08-22T04:49:45.641Z,18.50
2018-08-22T04:52:14.452Z,18.40
2018-08-22T04:54:42.669Z,18.50
2018-08-22T04:57:10.836Z,18.60
2018-08-22T04:59:39.065Z,18.70
2018-08-22T05:02:07.270Z,18.80
2018-08-22T05:04:35.441Z,18.80
2018-08-22T05:07:03.658Z,18.80
2018-08-22T05:09:31.833Z,19.00
2018-08-22T05:12:00.037Z,19.00
2018-08-22T05:14:28.237Z,19.20
2018-08-22T05:16:56.401Z,19.40
2018-08-22T05:19:24.593Z,19.70
2018-08-22T05:21:52.756Z,19.80
2018-08-22T05:24:21.183Z,19.90
2018-08-22T05:26:49.557Z,20.10
2018-08-22T05:29:17.753Z,20.10
2018-08-22T05:31:45.936Z,20.10
2018-08-22T05:34:14.100Z,20.30
2018-08-22T05:36:42.300Z,20.50
2018-08-22T05:39:12.160Z,20.70
2018-08-22T05:41:40.524Z,20.80
2018-08-22T05:44:08.809Z,20.90
2018-08-22T05:46:37.029Z,21.10
2018-08-22T05:49:05.301Z,21.30
2018-08-22T05:51:33.605Z,21.40
2018-08-22T05:54:01.782Z,21.60
2018-08-22T05:56:29.976Z,21.80
2018-08-22T05:58:58.202Z,22.00
2018-08-22T06:01:26.403Z,22.20
2018-08-22T06:03:54.566Z,22.30
2018-08-22T06:06:22.809Z,22.50
2018-08-22T06:08:51.266Z,22.60
2018-08-22T06:11:19.450Z,22.80
2018-08-22T06:13:47.730Z,22.80
2018-08-22T06:16:16.402Z,22.90
2018-08-22T06:18:45.077Z,22.80
2018-08-22T06:21:13.783Z,22.90
2018-08-22T06:23:42.428Z,23.10
2018-08-22T06:26:11.083Z,23.30
2018-08-22T06:28:39.731Z,23.50
2018-08-22T06:31:08.394Z,23.60
2018-08-22T06:33:37.019Z,23.50
2018-08-22T06:36:05.237Z,23.50
2018-08-22T06:38:33.413Z,23.30
2018-08-22T06:41:01.549Z,23.30
2018-08-22T06:43:29.760Z,23.40
2018-08-22T06:45:57.908Z,23.60
2018-08-22T06:48:26.381Z,23.50
2018-08-22T06:50:54.568Z,23.70
2018-08-22T06:53:22.727Z,24.00
2018-08-22T06:55:50.941Z,24.00
2018-08-22T06:58:19.538Z,24.00
2018-08-22T07:00:48.072Z,23.90
2018-08-22T07:03:16.305Z,23.90
2018-08-22T07:05:44.519Z,24.30
2018-08-22T07:08:13.208Z,24.70
2018-08-22T07:10:41.411Z,24.90
2018-08-22T07:13:09.763Z,25.10
2018-08-22T07:15:38.413Z,25.40
2018-08-22T07:18:06.973Z,25.30
2018-08-22T07:20:35.640Z,25.40
2018-08-22T07:23:03.867Z,25.70
2018-08-22T07:25:32.040Z,25.70
2018-08-22T07:28:00.517Z,25.60
2018-08-22T07:30:28.718Z,25.90
2018-08-22T07:32:57.023Z,26.00
2018-08-22T07:35:25.357Z,26.30
2018-08-22T07:37:54.025Z,26.60
2018-08-22T07:40:24.040Z,26.60
2018-08-22T07:42:52.322Z,26.70
2018-08-22T07:45:20.685Z,27.00
2018-08-22T07:47:48.905Z,27.20
2018-08-22T07:50:17.135Z,26.90
2018-08-22T07:52:51.013Z,26.90
2018-08-22T07:55:19.529Z,26.90
2018-08-22T07:57:47.985Z,26.60
2018-08-22T08:00:16.319Z,26.50
2018-08-22T08:02:45.157Z,26.70
2018-08-22T08:05:13.412Z,27.00
2018-08-22T08:07:41.605Z,27.20
2018-08-22T08:10:16.945Z,27.40
2018-08-22T08:12:45.395Z,27.70
2018-08-22T08:15:15.671Z,27.30
2018-08-22T08:17:43.837Z,27.50
2018-08-22T08:20:12.025Z,27.70
2018-08-22T08:22:40.288Z,27.80
2018-08-22T08:25:08.456Z,27.90
2018-08-22T08:27:38.201Z,28.00
2018-08-22T08:30:06.808Z,28.10
2018-08-22T08:32:34.997Z,28.10
2018-08-22T08:35:03.309Z,28.30
2018-08-22T08:37:31.519Z,28.30
2018-08-22T08:39:59.729Z,28.60
2018-08-22T08:42:27.933Z,28.70
2018-08-22T08:44:56.134Z,28.70
2018-08-22T08:47:24.556Z,28.80
2018-08-22T08:49:52.800Z,28.70
2018-08-22T08:52:20.990Z,28.90
2018-08-22T08:54:49.508Z,29.10
2018-08-22T08:57:17.951Z,29.10
2018-08-22T08:59:46.302Z,29.30
2018-08-22T09:02:14.537Z,29.20
2018-08-22T09:04:42.701Z,29.30
2018-08-22T09:07:10.985Z,29.40
2018-08-22T09:09:39.182Z,29.30
2018-08-22T09:12:08.309Z,29.40
2018-08-22T09:14:37.436Z,29.50
2018-08-22T09:17:06.460Z,29.60
2018-08-22T09:19:35.084Z,29.70
2018-08-22T09:22:03.546Z,29.60
2018-08-22T09:24:31.761Z,29.70
2018-08-22T09:26:59.986Z,29.80
2018-08-22T09:29:28.178Z,29.70
2018-08-22T09:31:56.405Z,29.90
2018-08-22T09:34:24.599Z,29.90
2018-08-22T09:36:52.794Z,30.10
2018-08-22T09:39:20.999Z,30.20
2018-08-22T09:41:49.193Z,30.20
2018-08-22T09:44:17.403Z,30.10
2018-08-22T09:46:45.640Z,30.00
2018-08-22T09:49:13.800Z,29.50
2018-08-22T09:51:41.989Z,29.30
2018-08-22T09:54:10.229Z,29.40
2018-08-22T09:56:38.402Z,29.40
2018-08-22T09:59:06.593Z,29.60
2018-08-22T10:01:40.342Z,29.40
2018-08-22T10:04:08.541Z,29.40
2018-08-22T10:06:45.387Z,29.70
2018-08-22T10:09:29.185Z,29.40
2018-08-22T10:11:57.404Z,29.60
2018-08-22T10:14:25.607Z,29.90
2018-08-22T10:16:53.792Z,30.30
2018-08-22T10:19:21.941Z,30.50
2018-08-22T10:21:50.146Z,30.50
2018-08-22T10:24:18.309Z,30.20
2018-08-22T10:26:46.542Z,30.20
2018-08-22T10:29:14.744Z,29.80
2018-08-22T10:31:42.922Z,30.10
2018-08-22T10:34:11.121Z,30.40
2018-08-22T10:36:39.318Z,30.60
2018-08-22T10:39:08.569Z,30.80
2018-08-22T10:41:36.777Z,30.80
2018-08-22T10:44:05.849Z,30.70
2018-08-22T10:46:34.051Z,30.70
2018-08-22T10:49:02.416Z,30.80
2018-08-22T10:51:30.743Z,30.80
2018-08-22T10:53:58.970Z,30.60
2018-08-22T10:56:27.476Z,30.40
2018-08-22T10:58:55.717Z,30.60
2018-08-22T11:01:24.144Z,30.70
2018-08-22T11:03:52.345Z,30.70
2018-08-22T11:06:20.496Z,30.60
2018-08-22T11:08:48.781Z,30.60
2018-08-22T11:11:17.282Z,30.70
2018-08-22T11:13:45.450Z,31.00
2018-08-22T11:16:16.829Z,31.40
2018-08-22T11:18:45.088Z,31.70
2018-08-22T11:21:24.451Z,31.80
2018-08-22T11:24:03.914Z,31.40
2018-08-22T11:26:43.193Z,31.50
2018-08-22T11:29:22.500Z,31.50
2018-08-22T11:32:01.766Z,31.70
2018-08-22T11:34:41.101Z,31.80
2018-08-22T11:37:10.565Z,31.80
2018-08-22T11:39:38.795Z,31.50
2018-08-22T11:42:07.315Z,31.70
2018-08-22T11:44:35.633Z,32.00
2018-08-22T11:47:03.842Z,32.10
2018-08-22T11:49:32.442Z,32.00
2018-08-22T11:52:03.421Z,31.70
2018-08-22T11:54:32.068Z,31.60
2018-08-22T11:57:00.865Z,31.90
2018-08-22T11:59:29.041Z,32.10
2018-08-22T12:01:57.280Z,31.90
2018-08-22T12:04:25.471Z,31.90
2018-08-22T12:06:53.725Z,32.10
2018-08-22T12:09:21.998Z,32.20
2018-08-22T12:11:50.181Z,32.50
2018-08-22T12:14:18.393Z,32.50
2018-08-22T12:16:46.582Z,32.50
2018-08-22T12:19:14.850Z,32.60
2018-08-22T12:21:43.215Z,32.80
2018-08-22T12:24:11.526Z,32.80
2018-08-22T12:26:40.340Z,32.90
2018-08-22T12:29:08.546Z,32.90
2018-08-22T12:31:36.713Z,32.40
2018-08-22T12:34:04.988Z,32.40
2018-08-22T12:36:33.179Z,32.70
2018-08-22T12:39:01.396Z,32.80
2018-08-22T12:41:29.584Z,32.90
2018-08-22T12:43:57.761Z,32.80
2018-08-22T12:46:25.924Z,32.40
2018-08-22T12:48:54.130Z,32.70
2018-08-22T12:51:22.767Z,32.80
2018-08-22T12:53:51.085Z,32.80
2018-08-22T12:56:19.269Z,32.80
2018-08-22T12:58:47.421Z,32.80
2018-08-22T13:01:15.607Z,32.60
2018-08-22T13:03:43.761Z,32.40
2018-08-22T13:06:11.940Z,32.10
2018-08-22T13:08:40.168Z,31.80
2018-08-22T13:11:08.380Z,32.00
2018-08-22T13:13:36.565Z,32.30
2018-08-22T13:16:04.740Z,32.50
2018-08-22T13:18:32.921Z,32.60
2018-08-22T13:21:01.117Z,32.60
2018-08-22T13:23:29.268Z,32.70
2018-08-22T13:25:57.457Z,32.70
2018-08-22T13:28:25.616Z,32.90
2018-08-22T13:30:53.824Z,33.00
2018-08-22T13:33:22.010Z,32.60
2018-08-22T13:35:50.157Z,32.90
2018-08-22T13:38:18.628Z,33.00
2018-08-22T13:40:46.773Z,32.90
2018-08-22T13:43:14.953Z,32.10
2018-08-22T13:45:43.279Z,31.80
2018-08-22T13:48:11.472Z,31.60
2018-08-22T13:50:39.773Z,31.60
2018-08-22T13:53:07.969Z,31.80
2018-08-22T13:55:36.154Z,31.50
2018-08-22T13:58:04.346Z,31.80
2018-08-22T14:00:32.549Z,32.10
2018-08-22T14:03:00.737Z,32.30
2018-08-22T14:05:28.908Z,32.40
2018-08-22T14:07:57.163Z,32.60
2018-08-22T14:10:25.317Z,32.40
2018-08-22T14:12:53.500Z,32.20
2018-08-22T14:15:21.729Z,32.10
2018-08-22T14:17:50.238Z,32.00
2018-08-22T14:20:18.469Z,31.80
2018-08-22T14:22:46.640Z,31.60
2018-08-22T14:25:14.845Z,31.50
2018-08-22T14:27:43.041Z,31.80
2018-08-22T14:30:11.235Z,32.10
2018-08-22T14:32:39.418Z,32.20
2018-08-22T14:35:07.629Z,32.00
2018-08-22T14:37:35.819Z,31.80
2018-08-22T14:40:04.038Z,31.70
2018-08-22T14:42:32.228Z,31.70
2018-08-22T14:45:00.459Z,31.50
2018-08-22T14:47:28.621Z,31.00
2018-08-22T14:49:56.800Z,30.80
2018-08-22T14:52:24.977Z,31.00
2018-08-22T14:54:53.130Z,31.40
2018-08-22T14:57:21.309Z,31.70
2018-08-22T14:59:49.457Z,31.80
2018-08-22T15:02:17.785Z,31.50
2018-08-22T15:04:45.951Z,31.20
2018-08-22T15:07:14.097Z,31.20
2018-08-22T15:09:42.309Z,31.30
2018-08-22T15:12:10.461Z,31.50
2018-08-22T15:14:38.632Z,31.30
2018-08-22T15:17:07.197Z,31.20
2018-08-22T15:19:35.346Z,31.20
2018-08-22T15:22:03.532Z,31.20
2018-08-22T15:24:31.668Z,31.30
2018-08-22T15:26:59.845Z,31.50
2018-08-22T15:29:28.008Z,31.20
2018-08-22T15:31:56.168Z,31.10
2018-08-22T15:34:29.664Z,31.20
2018-08-22T15:36:57.799Z,30.90
2018-08-22T15:39:25.978Z,30.80
2018-08-22T15:41:54.185Z,31.00
2018-08-22T15:44:22.329Z,31.10
2018-08-22T15:46:50.500Z,30.90
2018-08-22T15:49:18.645Z,30.90
2018-08-22T15:51:46.830Z,30.90
2018-08-22T15:54:16.296Z,31.00
2018-08-22T15:56:44.507Z,31.10
2018-08-22T15:59:13.184Z,31.20
2018-08-22T16:01:41.330Z,31.20
2018-08-22T16:04:10.019Z,31.20
2018-08-22T16:06:38.273Z,31.10
2018-08-22T16:09:20.725Z,31.10
2018-08-22T16:11:48.881Z,31.00
2018-08-22T16:14:17.061Z,30.90
2018-08-22T16:16:45.214Z,30.80
2018-08-22T16:19:13.395Z,30.70
2018-08-22T16:21:41.532Z,30.60
2018-08-22T16:24:09.750Z,30.50
2018-08-22T16:26:37.929Z,30.40
2018-08-22T16:29:06.169Z,30.40
2018-08-22T16:31:39.653Z,30.40
2018-08-22T16:34:09.909Z,30.30
2018-08-22T16:36:39.224Z,30.20
2018-08-22T16:39:07.892Z,30.20
2018-08-22T16:41:36.198Z,30.10
2018-08-22T16:44:04.436Z,30.10
2018-08-22T16:46:32.604Z,30.00
2018-08-22T16:49:00.778Z,29.80
2018-08-22T16:51:28.960Z,29.80
2018-08-22T16:54:02.657Z,29.80
2018-08-22T16:56:32.080Z,29.80
2018-08-22T16:59:17.968Z,29.80
2018-08-22T17:01:48.180Z,29.70
2018-08-22T17:04:16.399Z,29.70
2018-08-22T17:06:44.757Z,29.70
2018-08-22T17:09:12.975Z,29.70
2018-08-22T17:11:41.253Z,29.70
2018-08-22T17:14:09.471Z,29.70
2018-08-22T17:16:37.625Z,29.60
2018-08-22T17:19:05.805Z,29.50
2018-08-22T17:21:33.973Z,29.40
2018-08-22T17:24:02.170Z,29.40
2018-08-22T17:26:30.319Z,29.40
2018-08-22T17:28:59.457Z,29.30
2018-08-22T17:31:28.872Z,29.30
2018-08-22T17:33:58.313Z,29.20
2018-08-22T17:36:26.626Z,29.20
2018-08-22T17:38:55.860Z,29.10
2018-08-22T17:41:25.496Z,29.00
2018-08-22T17:44:12.879Z,28.90
2018-08-22T17:46:44.253Z,28.80
2018-08-22T17:49:12.442Z,28.70
2018-08-22T17:51:53.732Z,28.70
2018-08-22T17:54:21.917Z,28.60
2018-08-22T17:56:56.897Z,28.40
2018-08-22T17:59:25.081Z,28.30
2018-08-22T18:01:53.277Z,28.30
2018-08-22T18:04:22.041Z,28.20
2018-08-22T18:06:52.021Z,28.00
2018-08-22T18:09:20.425Z,27.90
2018-08-22T18:11:49.195Z,27.70
2018-08-22T18:14:19.260Z,27.60
2018-08-22T18:16:51.509Z,27.60
2018-08-22T18:19:19.949Z,27.60
2018-08-22T18:21:48.382Z,27.50
2018-08-22T18:24:16.964Z,27.40
2018-08-22T18:26:46.798Z,27.30
2018-08-22T18:29:15.001Z,27.20
2018-08-22T18:31:43.172Z,27.20
2018-08-22T18:34:11.473Z,27.10
2018-08-22T18:36:39.684Z,27.10
2018-08-22T18:39:11.332Z,27.00
2018-08-22T18:41:39.490Z,27.00
2018-08-22T18:44:07.686Z,27.00
2018-08-22T18:46:36.097Z,26.90
2018-08-22T18:49:04.924Z,26.80
2018-08-22T18:51:33.593Z,26.60
2018-08-22T18:54:02.421Z,26.50
2018-08-22T18:56:30.812Z,26.50
2018-08-22T18:59:03.545Z,26.50
2018-08-22T19:01:32.628Z,26.50
2018-08-22T19:04:00.977Z,26.50
2018-08-22T19:06:29.166Z,26.50
2018-08-22T19:08:57.393Z,26.30
2018-08-22T19:11:25.576Z,26.20
2018-08-22T19:13:53.724Z,26.10
2018-08-22T19:16:22.021Z,26.00
2018-08-22T19:18:50.164Z,25.90
2018-08-22T19:21:18.355Z,25.80
2018-08-22T19:23:50.957Z,25.60
2018-08-22T19:26:19.161Z,25.40
2018-08-22T19:28:56.432Z,25.30
2018-08-22T19:31:24.756Z,25.30
2018-08-22T19:33:52.990Z,25.40
2018-08-22T19:36:21.173Z,25.30
2018-08-22T19:38:49.380Z,25.30
2018-08-22T19:41:37.412Z,25.30
2018-08-22T19:44:06.120Z,25.30
2018-08-22T19:46:35.322Z,25.10
2018-08-22T19:49:03.612Z,25.00
2018-08-22T19:51:32.344Z,25.00
2018-08-22T19:54:03.383Z,25.00
2018-08-22T19:56:32.359Z,25.00
2018-08-22T19:59:01.619Z,25.00
2018-08-22T20:01:32.053Z,25.00
2018-08-22T20:04:00.224Z,25.00
2018-08-22T20:06:28.461Z,24.90
2018-08-22T20:08:57.679Z,24.70
2018-08-22T20:11:26.261Z,24.60
2018-08-22T20:14:04.494Z,24.60
2018-08-22T20:16:32.723Z,24.70
2018-08-22T20:19:02.235Z,24.70
2018-08-22T20:21:32.526Z,24.60
2018-08-22T20:24:01.556Z,24.40
2018-08-22T20:26:30.117Z,24.30
2018-08-22T20:28:59.505Z,24.20
2018-08-22T20:31:27.696Z,24.20
2018-08-22T20:34:07.373Z,24.10
2018-08-22T20:36:35.657Z,24.10
2018-08-22T20:39:06.380Z,24.00
2018-08-22T20:41:34.881Z,24.10
2018-08-22T20:44:07.180Z,24.10
2018-08-22T20:46:35.460Z,24.10
2018-08-22T20:49:03.638Z,24.00
2018-08-22T20:51:32.771Z,24.00
2018-08-22T20:54:10.767Z,24.00
2018-08-22T20:56:45.893Z,24.10
2018-08-22T20:59:14.864Z,24.10
2018-08-22T21:01:45.269Z,24.10
2018-08-22T21:04:13.532Z,24.10
2018-08-22T21:06:41.705Z,24.00
2018-08-22T21:09:10.164Z,24.00
2018-08-22T21:11:39.540Z,23.90
2018-08-22T21:14:07.725Z,23.70
2018-08-22T21:16:36.481Z,23.70
2018-08-22T21:19:04.905Z,23.70
2018-08-22T21:21:33.117Z,23.60
2018-08-22T21:24:01.306Z,23.50
2018-08-22T21:26:36.885Z,23.50
2018-08-22T21:29:05.245Z,23.50
2018-08-22T21:31:34.008Z,23.40
2018-08-22T21:34:08.604Z,23.40
2018-08-22T21:36:38.194Z,23.50
2018-08-22T21:39:11.106Z,23.50
2018-08-22T21:41:39.617Z,23.50
2018-08-22T21:44:07.807Z,23.50
2018-08-22T21:46:36.004Z,23.50
2018-08-22T21:49:09.631Z,23.50
2018-08-22T21:51:38.681Z,23.50
2018-08-22T21:54:07.657Z,23.50
2018-08-22T21:56:35.853Z,23.50
2018-08-22T21:59:05.198Z,23.40
2018-08-22T22:01:39.026Z,23.40
2018-08-22T22:04:11.765Z,23.40
2018-08-22T22:06:39.961Z,23.30
2018-08-22T22:09:08.200Z,23.10
2018-08-22T22:11:36.401Z,23.00
2018-08-22T22:14:11.987Z,23.00
2018-08-22T22:16:40.234Z,22.90
2018-08-22T22:19:08.478Z,22.80
2018-08-22T22:21:36.733Z,22.70
2018-08-22T22:24:04.957Z,22.60
2018-08-22T22:26:33.113Z,22.70
2018-08-22T22:29:06.241Z,22.70
2018-08-22T22:31:34.505Z,22.70
2018-08-22T22:34:03.445Z,22.70
2018-08-22T22:36:32.617Z,22.70
2018-08-22T22:39:00.816Z,22.70
2018-08-22T22:41:30.221Z,22.60
2018-08-22T22:43:58.433Z,22.70
2018-08-22T22:46:26.632Z,22.60
2018-08-22T22:48:54.831Z,22.60
2018-08-22T22:51:22.997Z,22.40
2018-08-22T22:53:51.197Z,22.30
2018-08-22T22:56:19.406Z,22.30
2018-08-22T22:58:47.613Z,22.30
2018-08-22T23:01:15.834Z,22.30
2018-08-22T23:03:44.000Z,22.50
2018-08-22T23:06:12.193Z,22.50
2018-08-22T23:08:40.360Z,22.50
2018-08-22T23:11:08.590Z,22.50
2018-08-22T23:13:36.790Z,22.50
2018-08-22T23:16:05.000Z,22.50
2018-08-22T23:18:33.268Z,22.50
2018-08-22T23:21:01.477Z,22.40
2018-08-22T23:23:32.484Z,22.40
2018-08-22T23:26:06.941Z,22.40
2018-08-22T23:28:35.224Z,22.30
2018-08-22T23:31:03.421Z,22.30
2018-08-22T23:33:31.597Z,22.30
2018-08-22T23:35:59.809Z,22.30
2018-08-22T23:38:30.984Z,22.30
2018-08-22T23:40:59.613Z,22.20
2018-08-22T23:43:37.089Z,22.20
2018-08-22T23:46:06.357Z,22.20
2018-08-22T23:48:35.088Z,22.10
2018-08-22T23:51:07.420Z,22.10
2018-08-22T23:53:42.085Z,22.00
2018-08-22T23:56:14.978Z,22.00
2018-08-22T23:58:44.112Z,22.10
